Time;durP1;ratioP1;P1;durP2;ratioP2;P2;SDS_P1;SDS_P2;PMS_P1;PMS_P2;Temp;Humidity;BMP_temperature;BMP_pressure;BME280_temperature;BME280_humidity;BME280_pressure;Samples;Min_cycle;Max_cycle;Signal;HPM_P1;HPM_P2
2022/05/19 00:00:11;;;;;;;10.53;5.00;;;;;;;6.65;90.26;100121.73;1697942;84;21793;-80
2022/05/19 00:03:10;;;;;;;7.87;4.50;;;;;;;6.56;91.13;100123.52;1699008;84;21195;-80
2022/05/19 00:06:04;;;;;;;12.28;4.20;;;;;;;6.46;92.28;100116.46;1698887;84;21267;-80
2022/05/19 00:09:09;;;;;;;7.35;4.35;;;;;;;6.39;93.55;100126.56;1698996;84;21205;-80
2022/05/19 00:12:25;;;;;;;11.50;4.62;;;;;;;6.32;95.00;100120.56;1698938;84;21235;-80
2022/05/19 00:15:32;;;;;;;12.68;5.92;;;;;;;6.28;96.68;100126.80;1699064;84;21219;-80
2022/05/19 00:18:38;;;;;;;9.48;5.28;;;;;;;6.26;98.58;100121.19;1699181;84;21810;-80
2022/05/19 00:21:44;;;;;;;10.32;5.67;;;;;;;6.24;100.00;100121.31;1697486;84;21230;-80
2022/05/19 00:24:50;;;;;;;12.78;5.87;;;;;;;6.21;100.00;100118.92;1699409;84;21234;-80
2022/05/19 00:27:56;;;;;;;10.10;6.08;;;;;;;6.22;100.00;100112.98;1697927;84;21187;-80
2022/05/19 00:31:02;;;;;;;12.28;6.22;;;;;;;6.20;100.00;100118.55;1699073;84;21222;-80
2022/05/19 00:34:10;;;;;;;11.65;7.55;;;;;;;6.17;100.00;100112.09;1699041;84;21203;-80
2022/05/19 00:37:16;;;;;;;14.03;7.60;;;;;;;6.18;100.00;100114.30;1697737;84;21235;-80
2022/05/19 00:40:21;;;;;;;20.30;8.70;;;;;;;6.18;100.00;100127.37;1698249;84;21203;-80
2022/05/19 00:43:43;;;;;;;22.48;10.48;;;;;;;6.19;100.00;100124.15;1683424;84;21303;-80
2022/05/19 00:46:58;;;;;;;20.60;10.05;;;;;;;6.19;100.00;100125.00;1699742;84;21227;-80
2022/05/19 00:50:04;;;;;;;25.00;11.60;;;;;;;6.20;100.00;100129.41;1699390;84;21304;-80
2022/05/19 00:53:14;;;;;;;28.77;12.80;;;;;;;6.22;100.00;100128.78;1699026;84;21742;-80
2022/05/19 00:56:36;;;;;;;27.98;14.58;;;;;;;6.27;100.00;100130.53;1697531;84;21774;-80
2022/05/19 00:59:46;;;;;;;34.10;15.50;;;;;;;6.35;100.00;100129.27;1699184;84;21737;-80
2022/05/19 01:03:00;;;;;;;37.48;16.23;;;;;;;6.47;100.00;100136.67;1697644;84;21208;-81
2022/05/19 01:06:11;;;;;;;30.85;15.72;;;;;;;6.59;100.00;100144.11;1699697;84;21203;-80
2022/05/19 01:09:17;;;;;;;32.90;15.75;;;;;;;6.73;100.00;100149.00;1699285;84;21508;-80
2022/05/19 01:12:24;;;;;;;38.67;15.83;;;;;;;6.85;100.00;100147.73;1699131;84;21191;-80
2022/05/19 01:15:30;;;;;;;35.52;17.17;;;;;;;6.98;100.00;100154.66;1699179;84;21223;-80
2022/05/19 01:18:36;;;;;;;37.78;18.98;;;;;;;7.06;100.00;100143.34;1698081;84;21282;-81
2022/05/19 01:21:40;;;;;;;41.20;17.23;;;;;;;7.13;100.00;100139.48;1698313;84;21247;-81
2022/05/19 01:25:03;;;;;;;38.20;17.50;;;;;;;7.21;100.00;100139.55;1699138;84;21834;-80
2022/05/19 01:28:10;;;;;;;40.30;17.70;;;;;;;7.26;100.00;100141.28;1685165;84;21508;-80
2022/05/19 01:31:37;;;;;;;31.52;14.83;;;;;;;7.32;100.00;100141.14;1699038;84;21786;-81
2022/05/19 01:34:43;;;;;;;29.92;14.38;;;;;;;7.37;100.00;100141.00;1699021;84;21782;-80
2022/05/19 01:37:50;;;;;;;33.98;13.62;;;;;;;7.45;100.00;100139.37;1698547;84;21247;-80
2022/05/19 01:41:28;;;;;;;27.10;14.05;;;;;;;7.54;100.00;100139.77;1698727;84;21223;-80
2022/05/19 01:45:12;;;;;;;26.80;13.32;;;;;;;7.66;100.00;100150.20;1700551;84;21207;-80
2022/05/19 01:48:34;;;;;;;22.67;12.03;;;;;;;7.78;100.00;100145.85;1698341;84;21255;-80
2022/05/19 01:51:52;;;;;;;29.25;12.50;;;;;;;7.86;100.00;100152.20;1699029;84;21187;-80
2022/05/19 01:55:22;;;;;;;25.00;12.65;;;;;;;7.93;100.00;100151.88;1699091;84;21227;-80
2022/05/19 01:58:35;;;;;;;22.90;11.33;;;;;;;8.00;100.00;100160.27;1698410;84;21286;-80
2022/05/19 02:01:40;;;;;;;21.40;11.18;;;;;;;8.07;100.00;100159.09;1698994;84;21187;-80
2022/05/19 02:04:51;;;;;;;19.95;10.82;;;;;;;8.14;100.00;100169.69;1698944;84;21718;-80
2022/05/19 02:08:00;;;;;;;20.17;12.23;;;;;;;8.21;100.00;100165.28;1698903;84;21207;-80
2022/05/19 02:11:11;;;;;;;23.50;13.28;;;;;;;8.30;100.00;100168.38;1698789;84;21237;-80
2022/05/19 02:14:21;;;;;;;22.55;13.43;;;;;;;8.41;100.00;100169.45;1699004;84;21243;-80
2022/05/19 02:17:28;;;;;;;31.62;14.20;;;;;;;8.50;100.00;100166.77;1698931;84;21199;-81
2022/05/19 02:20:35;;;;;;;29.80;16.10;;;;;;;8.56;100.00;100169.69;1699534;84;21203;-81
2022/05/19 02:23:40;;;;;;;27.45;15.05;;;;;;;8.64;100.00;100181.11;1703930;84;22583;-81
2022/05/19 02:26:46;;;;;;;33.42;16.25;;;;;;;8.69;100.00;100175.48;1685021;84;21230;-81
2022/05/19 02:29:53;;;;;;;28.45;14.65;;;;;;;8.73;100.00;100178.74;1706826;84;21191;-81
2022/05/19 02:32:59;;;;;;;33.35;16.45;;;;;;;8.77;100.00;100180.63;1705414;84;21202;-81
2022/05/19 02:36:05;;;;;;;32.00;16.42;;;;;;;8.81;100.00;100179.28;1706839;84;21758;-81
2022/05/19 02:39:11;;;;;;;25.27;13.48;;;;;;;8.85;100.00;100178.77;1706094;84;21242;-81
2022/05/19 02:42:17;;;;;;;24.50;12.45;;;;;;;8.91;100.00;100175.87;1706172;84;21223;-81
2022/05/19 02:45:23;;;;;;;19.82;10.75;;;;;;;8.99;100.00;100188.66;1706841;84;21238;-81
2022/05/19 02:48:29;;;;;;;18.35;9.00;;;;;;;9.04;100.00;100183.56;1706567;84;21744;-80
2022/05/19 02:51:34;;;;;;;13.88;8.20;;;;;;;9.10;100.00;100185.09;1706852;84;21198;-80
2022/05/19 02:54:40;;;;;;;14.33;7.62;;;;;;;9.15;100.00;100183.22;1706882;84;21222;-80
2022/05/19 02:57:46;;;;;;;14.25;7.60;;;;;;;9.19;100.00;100193.63;1706048;84;21238;-80
2022/05/19 03:00:54;;;;;;;10.05;5.87;;;;;;;9.25;100.00;100187.99;1706957;84;21251;-80
2022/05/19 03:04:01;;;;;;;9.85;5.65;;;;;;;9.32;100.00;100184.09;1706982;84;22100;-80
2022/05/19 03:07:06;;;;;;;8.35;5.47;;;;;;;9.35;100.00;100188.67;1706808;84;21207;-81
2022/05/19 03:10:13;;;;;;;10.60;5.62;;;;;;;9.37;100.00;100197.56;1705729;84;21215;-80
2022/05/19 03:13:26;;;;;;;7.45;4.20;;;;;;;9.38;100.00;100200.62;1705533;84;21845;-81
2022/05/19 03:16:33;;;;;;;6.60;4.30;;;;;;;9.38;100.00;100199.25;1706906;84;21762;-80
2022/05/19 03:19:38;;;;;;;7.78;4.08;;;;;;;9.44;100.00;100197.71;1705952;84;21807;-81
2022/05/19 03:22:45;;;;;;;8.60;4.33;;;;;;;9.51;100.00;100196.02;1706384;84;21211;-81
2022/05/19 03:25:52;;;;;;;5.97;4.20;;;;;;;9.61;100.00;100197.20;1704861;84;21276;-81
2022/05/19 03:28:57;;;;;;;8.98;4.35;;;;;;;9.70;100.00;100191.55;1673643;85;21864;-81
2022/05/19 03:32:05;;;;;;;6.05;3.83;;;;;;;9.79;100.00;100197.00;1676323;85;21206;-81
2022/05/19 03:35:10;;;;;;;6.35;4.00;;;;;;;9.90;100.00;100203.45;1674962;85;21253;-81
2022/05/19 03:38:15;;;;;;;7.10;4.55;;;;;;;10.07;100.00;100204.23;1676418;85;21209;-81
2022/05/19 03:41:23;;;;;;;9.95;5.70;;;;;;;10.19;100.00;100204.21;1675253;85;21277;-81
2022/05/19 03:44:29;;;;;;;12.07;5.80;;;;;;;10.28;100.00;100212.75;1676327;85;21194;-80
2022/05/19 03:47:34;;;;;;;12.20;6.28;;;;;;;10.32;100.00;100207.27;1674847;85;21312;-80
2022/05/19 03:50:39;;;;;;;13.25;7.62;;;;;;;10.33;100.00;100217.17;1675078;85;21229;-80
2022/05/19 03:53:45;;;;;;;13.05;6.42;;;;;;;10.32;100.00;100211.89;1674405;85;21256;-80
2022/05/19 03:56:51;;;;;;;9.70;6.10;;;;;;;10.33;100.00;100219.05;1675989;85;21285;-80
2022/05/19 04:00:01;;;;;;;11.00;6.40;;;;;;;10.33;100.00;100224.52;1673995;85;21300;-80
2022/05/19 04:03:08;;;;;;;13.13;6.65;;;;;;;10.31;100.00;100226.08;1675920;85;21229;-80
2022/05/19 04:06:14;;;;;;;19.45;7.65;;;;;;;10.31;100.00;100231.55;1674854;85;21273;-81
2022/05/19 04:09:19;;;;;;;17.25;7.40;;;;;;;10.27;100.00;100215.16;1676181;85;21281;-80
2022/05/19 04:12:32;;;;;;;17.70;8.35;;;;;;;10.26;100.00;100218.92;1674811;85;21249;-80
2022/05/19 04:15:35;;;;;;;15.05;8.05;;;;;;;10.25;100.00;100228.13;1676674;85;21217;-80
2022/05/19 04:18:41;;;;;;;15.58;9.40;;;;;;;10.25;100.00;100234.96;1673567;85;21217;-80
2022/05/19 04:21:47;;;;;;;17.60;9.98;;;;;;;10.26;100.00;100238.55;1674915;85;21221;-80
2022/05/19 04:24:53;;;;;;;19.50;10.15;;;;;;;10.28;100.00;100228.30;1676370;84;21565;-80
2022/05/19 04:27:59;;;;;;;16.93;8.95;;;;;;;10.31;100.00;100238.38;1677788;85;21875;-80
2022/05/19 04:31:04;;;;;;;21.12;9.88;;;;;;;10.35;100.00;100241.10;1703549;84;21749;-80
2022/05/19 04:34:09;;;;;;;18.10;10.05;;;;;;;10.40;100.00;100238.69;1677757;85;21783;-80
2022/05/19 04:37:15;;;;;;;17.65;9.08;;;;;;;10.48;100.00;100235.90;1704494;84;21178;-81
2022/05/19 04:40:21;;;;;;;18.85;9.38;;;;;;;10.58;100.00;100238.94;1677256;85;21213;-80
2022/05/19 04:43:27;;;;;;;18.10;9.85;;;;;;;10.67;100.00;100250.17;1703391;84;21259;-80
2022/05/19 04:46:33;;;;;;;18.30;8.55;;;;;;;10.77;100.00;100241.23;1678027;85;21241;-80
2022/05/19 04:49:39;;;;;;;17.20;9.33;;;;;;;10.86;100.00;100234.68;1704710;84;21201;-80
2022/05/19 04:52:46;;;;;;;21.37;8.68;;;;;;;10.96;100.00;100246.27;1677756;85;21206;-80
2022/05/19 04:55:52;;;;;;;18.95;8.33;;;;;;;11.06;100.00;100238.34;1704592;84;21710;-81
2022/05/19 04:58:58;;;;;;;14.55;7.85;;;;;;;11.17;100.00;100244.77;1677368;85;21244;-80
2022/05/19 05:02:05;;;;;;;13.43;6.95;;;;;;;11.31;100.00;100246.71;1703274;84;21235;-80
2022/05/19 05:05:13;;;;;;;10.90;5.20;;;;;;;11.45;100.00;100251.39;1666312;84;21189;-81
2022/05/19 05:08:21;;;;;;;8.83;4.97;;;;;;;11.59;100.00;100253.00;1699071;84;21189;-80
2022/05/19 05:11:30;;;;;;;7.15;4.62;;;;;;;11.70;97.47;100260.77;1709199;84;21262;-80
2022/05/19 05:14:36;;;;;;;9.95;3.98;;;;;;;11.82;96.28;100256.59;1717072;82;21729;-81
2022/05/19 05:17:42;;;;;;;5.65;4.70;;;;;;;11.94;94.76;100255.60;1696536;84;21327;-81
2022/05/19 05:20:50;;;;;;;6.90;3.95;;;;;;;12.03;94.25;100256.70;1709100;84;21228;-81
2022/05/19 05:23:57;;;;;;;8.90;3.37;;;;;;;12.15;93.80;100261.75;1714522;82;21701;-80
2022/05/19 05:27:05;;;;;;;8.78;4.17;;;;;;;12.24;92.46;100261.99;1734168;82;21227;-80
2022/05/19 05:30:13;;;;;;;5.92;3.15;;;;;;;12.35;92.52;100268.37;1770342;81;21287;-80
2022/05/19 05:33:19;;;;;;;4.53;3.22;;;;;;;12.45;89.73;100261.22;1771149;81;21542;-80
2022/05/19 05:36:26;;;;;;;7.78;3.40;;;;;;;12.52;89.18;100266.30;1769642;81;21179;-80
2022/05/19 05:39:32;;;;;;;8.85;3.37;;;;;;;12.61;88.59;100270.64;1769745;79;21149;-80
2022/05/19 05:42:38;;;;;;;6.15;3.45;;;;;;;12.73;88.32;100264.13;1784799;79;21187;-80
2022/05/19 05:45:45;;;;;;;10.72;3.27;;;;;;;12.89;88.60;100257.56;1704868;84;21796;-80
2022/05/19 05:48:52;;;;;;;7.33;3.17;;;;;;;13.05;87.48;100260.95;1782657;79;21169;-80
2022/05/19 05:51:58;;;;;;;7.15;3.72;;;;;;;13.24;86.86;100262.77;1772509;79;21198;-80
2022/05/19 05:55:05;;;;;;;10.43;3.60;;;;;;;13.42;85.21;100274.16;1706120;84;21229;-80
2022/05/19 05:58:15;;;;;;;6.55;3.27;;;;;;;13.55;82.65;100277.05;1769783;81;21174;-81
2022/05/19 06:01:24;;;;;;;8.93;3.87;;;;;;;13.69;82.77;100275.28;1774015;79;21292;-80
2022/05/19 06:04:30;;;;;;;4.10;3.12;;;;;;;13.85;80.86;100286.52;1784159;79;21178;-81
2022/05/19 06:07:35;;;;;;;6.37;3.40;;;;;;;14.01;80.29;100280.71;1771110;81;21171;-80
2022/05/19 06:10:41;;;;;;;6.83;3.87;;;;;;;14.17;79.87;100278.73;1779191;79;21785;-81
2022/05/19 06:13:46;;;;;;;4.80;3.67;;;;;;;14.42;78.99;100270.85;1775838;79;21197;-81
2022/05/19 06:16:52;;;;;;;7.15;3.85;;;;;;;14.76;78.46;100274.13;1773263;79;21169;-81
2022/05/19 06:19:58;;;;;;;8.08;3.80;;;;;;;15.16;75.89;100275.69;1769484;81;21737;-82
2022/05/19 06:23:04;;;;;;;5.42;3.40;;;;;;;15.51;74.49;100271.73;1782876;79;21174;-81
2022/05/19 06:26:11;;;;;;;8.95;3.37;;;;;;;15.76;72.40;100280.80;1779938;79;21173;-81
2022/05/19 06:29:12;;;;;;;3.80;3.35;;;;;;;15.70;70.82;100292.14;1779086;79;21209;-80
2022/05/19 06:32:18;;;;;;;6.30;3.50;;;;;;;15.49;72.18;100289.55;1770374;79;21748;-81
2022/05/19 06:35:27;;;;;;;6.12;3.35;;;;;;;15.24;71.66;100292.01;1775682;79;21222;-81
2022/05/19 06:38:32;;;;;;;4.92;2.95;;;;;;;15.03;73.17;100291.09;1775650;79;21773;-81
2022/05/19 06:45:02;;;;;;;9.15;3.67;;;;;;;14.78;73.83;100307.30;1708085;83;21194;-81
2022/05/19 06:48:09;;;;;;;5.85;3.17;;;;;;;14.66;74.44;100305.32;1775309;79;21182;-81
2022/05/19 06:51:16;;;;;;;6.87;3.50;;;;;;;14.66;74.20;100306.70;1786942;79;21184;-81
2022/05/19 06:54:22;;;;;;;5.67;3.50;;;;;;;14.72;74.05;100310.00;1771095;81;21162;-80
2022/05/19 06:57:31;;;;;;;7.08;3.12;;;;;;;14.85;73.47;100303.20;1775473;79;21149;-80
2022/05/19 07:00:38;;;;;;;6.85;4.05;;;;;;;15.03;73.01;100308.16;1770904;81;21778;-80
2022/05/19 07:03:46;;;;;;;5.70;3.30;;;;;;;15.21;72.88;100305.69;1782195;79;21178;-80
2022/05/19 07:06:54;;;;;;;3.90;3.02;;;;;;;15.43;71.91;100303.64;1715233;82;21181;-81
2022/05/19 07:10:01;;;;;;;4.67;2.83;;;;;;;15.63;69.04;100300.08;1778368;79;21221;-80
2022/05/19 07:13:09;;;;;;;10.10;3.37;;;;;;;15.77;68.05;100293.02;1779545;79;21470;-81
2022/05/19 07:16:14;;;;;;;8.15;3.10;;;;;;;15.96;65.26;100305.13;1769536;81;21194;-81
2022/05/19 07:22:43;;;;;;;7.35;3.45;;;;;;;16.24;61.22;100300.77;1780935;79;21293;-81
2022/05/19 07:25:51;;;;;;;10.25;3.75;;;;;;;16.33;59.45;100298.64;1774965;79;21288;-81
2022/05/19 07:28:56;;;;;;;9.30;3.52;;;;;;;16.39;60.40;100297.77;1774418;79;21171;-80
2022/05/19 07:32:03;;;;;;;7.90;3.00;;;;;;;16.54;58.48;100296.15;1772584;80;21210;-81
2022/05/19 07:35:08;;;;;;;4.95;3.52;;;;;;;16.66;57.47;100293.59;1776367;79;21114;-80
2022/05/19 07:38:14;;;;;;;4.53;2.50;;;;;;;16.67;55.57;100302.19;1770766;81;21212;-81
2022/05/19 07:41:21;;;;;;;9.25;3.90;;;;;;;16.73;57.37;100288.91;1769893;79;21708;-81
2022/05/19 07:44:27;;;;;;;10.00;3.10;;;;;;;16.82;54.44;100287.61;1770848;81;21173;-81
2022/05/19 07:47:32;;;;;;;5.97;2.90;;;;;;;16.96;54.27;100304.45;1770992;81;21171;-81
2022/05/19 07:50:37;;;;;;;18.17;2.85;;;;;;;17.15;53.86;100293.54;1774506;80;22460;-81
2022/05/19 07:53:44;;;;;;;10.40;3.17;;;;;;;17.33;51.79;100299.19;1779063;79;21158;-81
2022/05/19 07:56:50;;;;;;;3.83;1.98;;;;;;;17.33;48.46;100303.34;1775635;79;21166;-81
2022/05/19 07:59:59;;;;;;;4.10;2.50;;;;;;;17.20;46.29;100294.56;1779612;79;21179;-81
2022/05/19 08:03:04;;;;;;;4.62;2.67;;;;;;;17.31;47.79;100282.84;1770704;79;21229;-81
2022/05/19 08:06:10;;;;;;;3.67;2.12;;;;;;;17.51;47.71;100286.02;1779645;79;21166;-81
2022/05/19 08:16:00;;;;;;;4.00;2.00;;;;;;;17.16;48.48;100293.84;1722017;81;21172;-81
2022/05/19 08:19:06;;;;;;;4.87;2.15;;;;;;;17.06;50.38;100283.27;1770222;81;21189;-81
2022/05/19 08:22:13;;;;;;;3.70;1.90;;;;;;;17.14;50.34;100284.94;1770575;81;21340;-81
2022/05/19 08:25:18;;;;;;;8.38;2.00;;;;;;;17.15;49.00;100293.54;1769527;81;21182;-81
2022/05/19 08:28:30;;;;;;;5.83;1.67;;;;;;;17.07;49.10;100275.28;1771178;81;21784;-81
2022/05/19 08:31:38;;;;;;;8.55;1.67;;;;;;;16.99;46.94;100280.55;1770133;81;21198;-81
2022/05/19 08:34:44;;;;;;;5.33;1.37;;;;;;;16.95;47.98;100279.28;1770026;81;21186;-81
2022/05/19 08:37:50;;;;;;;3.10;1.50;;;;;;;16.89;49.75;100273.26;1770649;81;21222;-81
2022/05/19 08:41:10;;;;;;;2.83;1.40;;;;;;;16.84;49.90;100275.30;1770504;81;21269;-81
2022/05/19 08:44:45;;;;;;;2.25;1.20;;;;;;;16.87;44.92;100267.08;1772368;79;21756;-80
2022/05/19 08:47:52;;;;;;;6.17;1.70;;;;;;;17.14;43.21;100261.45;1769849;81;21194;-81
2022/05/19 08:51:10;;;;;;;5.00;1.40;;;;;;;17.51;42.74;100273.57;1742148;81;21150;-81
2022/05/19 08:54:19;;;;;;;7.35;1.02;;;;;;;17.70;41.62;100274.51;1775522;79;21200;-81
2022/05/19 08:57:35;;;;;;;4.62;1.35;;;;;;;17.77;42.67;100268.41;1732615;82;21240;-81
2022/05/19 09:00:48;;;;;;;2.98;0.98;;;;;;;17.86;41.49;100269.28;1771333;81;21292;-81
2022/05/19 09:04:05;;;;;;;3.08;1.27;;;;;;;18.00;39.92;100275.56;1770767;81;21217;-81
2022/05/19 09:11:24;;;;;;;3.58;1.10;;;;;;;17.93;41.09;100276.17;1768758;81;21244;-81
2022/05/19 09:14:34;;;;;;;4.25;1.10;;;;;;;17.87;40.96;100272.89;1767926;81;21884;-81
2022/05/19 09:17:44;;;;;;;4.87;1.10;;;;;;;18.08;42.05;100266.98;1768778;81;21208;-82
2022/05/19 09:20:48;;;;;;;4.17;1.12;;;;;;;18.38;39.94;100277.34;1774593;79;21153;-82
2022/05/19 09:23:55;;;;;;;4.10;1.42;;;;;;;18.61;40.19;100261.45;1781179;79;21225;-82
2022/05/19 09:27:02;;;;;;;3.90;0.98;;;;;;;18.86;38.20;100262.78;1732802;82;21248;-82
2022/05/19 09:30:08;;;;;;;3.40;1.10;;;;;;;19.10;40.14;100260.47;1800580;79;21283;-81
2022/05/19 09:33:17;;;;;;;4.55;1.27;;;;;;;19.19;39.14;100258.73;1782152;79;21196;-81
2022/05/19 09:36:22;;;;;;;5.25;1.20;;;;;;;19.15;38.85;100267.54;1789546;79;21173;-82
2022/05/19 09:39:33;;;;;;;3.12;1.30;;;;;;;19.09;39.37;100273.16;1776122;80;21252;-81
2022/05/19 09:42:42;;;;;;;4.30;1.27;;;;;;;18.96;39.13;100288.56;1777687;80;21205;-81
2022/05/19 09:45:53;;;;;;;5.78;0.98;;;;;;;18.96;39.13;100288.56;1776486;80;21221;-81
2022/05/19 09:49:11;;;;;;;11.08;1.00;;;;;;;18.84;39.49;100284.34;1777558;80;21752;-81
2022/05/19 09:52:19;;;;;;;5.75;1.27;;;;;;;18.65;40.04;100289.84;1808575;79;21181;-81
2022/05/19 09:55:27;;;;;;;6.72;0.90;;;;;;;18.48;40.83;100292.89;1717678;82;21263;-81
2022/05/19 09:58:53;;;;;;;3.60;0.90;;;;;;;18.34;41.64;100301.02;1741452;82;21160;-81
2022/05/19 10:02:29;;;;;;;1.22;0.93;;;;;;;18.18;40.73;100291.92;1749346;81;21815;-81
2022/05/19 10:05:48;;;;;;;1.72;1.00;;;;;;;18.06;41.39;100285.72;1665744;84;21223;-78
2022/05/19 10:08:52;;;;;;;1.57;0.82;;;;;;;18.07;41.48;100297.13;1716899;83;21220;-78
2022/05/19 10:12:03;;;;;;;5.72;0.85;;;;;;;18.21;40.98;100294.22;1725766;83;21753;-78
2022/05/19 10:15:13;;;;;;;5.72;1.10;;;;;;;18.30;38.82;100292.86;1725395;83;21176;-78
2022/05/19 10:18:24;;;;;;;5.45;1.20;;;;;;;18.35;38.12;100298.59;1725672;83;21192;-78
2022/05/19 10:21:57;;;;;;;3.05;0.93;;;;;;;18.34;38.65;100293.55;1727379;83;21152;-78
2022/05/19 10:25:32;;;;;;;2.27;1.32;;;;;;;18.29;37.29;100287.02;1637116;86;21184;-77
2022/05/19 10:32:29;;;;;;;2.58;1.30;;;;;;;18.27;37.40;100276.72;1687535;84;21190;-77
2022/05/19 10:35:59;;;;;;;8.33;3.20;;;;;;;18.33;38.34;100286.88;1721665;83;21186;-78
2022/05/19 10:39:19;;;;;;;1.17;1.00;;;;;;;18.39;36.06;100281.80;1725676;81;21192;-78
2022/05/19 10:42:50;;;;;;;2.85;1.00;;;;;;;18.59;36.31;100288.00;1725519;83;21935;-78
2022/05/19 10:45:57;;;;;;;5.42;0.90;;;;;;;18.83;33.89;100278.50;1725782;83;21817;-78
2022/05/19 10:49:26;;;;;;;2.05;0.85;;;;;;;18.89;34.74;100281.18;1706520;81;21251;-78
2022/05/19 10:52:42;;;;;;;3.55;0.70;;;;;;;18.78;33.90;100308.28;1730855;81;21172;-78
2022/05/19 10:56:03;;;;;;;2.55;0.78;;;;;;;18.61;34.67;100291.91;1756564;81;21161;-78
2022/05/19 10:59:19;;;;;;;1.80;1.10;;;;;;;18.46;34.60;100299.75;1726304;83;21487;-78
2022/05/19 11:02:46;;;;;;;1.60;0.78;;;;;;;18.31;34.93;100295.42;1713948;83;21703;-78
2022/05/19 11:06:11;;;;;;;6.40;1.10;;;;;;;18.22;35.26;100295.39;1739191;82;21159;-78
2022/05/19 11:09:22;;;;;;;1.67;1.00;;;;;;;18.14;34.62;100293.75;1743028;82;21731;-78
2022/05/19 11:12:58;;;;;;;4.70;1.15;;;;;;;18.05;35.35;100297.87;1748626;81;21816;-78
2022/05/19 11:16:17;;;;;;;2.92;1.20;;;;;;;18.02;35.99;100295.57;1721005;82;21180;-78
2022/05/19 11:19:35;;;;;;;9.75;1.20;;;;;;;18.00;36.16;100310.16;1746409;80;21192;-78
2022/05/19 11:22:43;;;;;;;4.72;1.30;;;;;;;17.97;36.02;100307.83;1746435;81;21420;-78
2022/05/19 11:29:33;;;;;;;4.20;1.80;;;;;;;17.56;42.86;100317.45;1741076;82;21153;-78
2022/05/19 11:32:45;;;;;;;6.12;2.72;;;;;;;17.21;44.33;100317.52;1731030;82;21221;-78
2022/05/19 11:36:08;;;;;;;7.30;1.62;;;;;;;17.02;45.36;100312.39;1726183;82;21810;-78
2022/05/19 11:39:44;;;;;;;4.75;1.72;;;;;;;16.92;45.31;100318.38;1725702;81;21193;-78
2022/05/19 11:43:23;;;;;;;2.98;1.95;;;;;;;16.91;45.18;100318.08;1746161;81;21750;-77
2022/05/19 11:46:59;;;;;;;6.12;2.05;;;;;;;16.95;46.52;100323.48;1738809;82;21157;-77
2022/05/19 11:56:42;;;;;;;3.83;1.53;;;;;;;17.19;46.68;100309.47;1742979;82;21747;-78
2022/05/19 11:59:55;;;;;;;5.80;1.90;;;;;;;17.32;46.27;100310.78;1743983;82;21213;-78
2022/05/19 12:03:14;;;;;;;11.10;1.65;;;;;;;17.44;46.00;100302.63;1741774;82;21186;-78
2022/05/19 12:06:24;;;;;;;5.97;1.45;;;;;;;17.55;45.98;100306.09;1734966;80;21149;-82
2022/05/19 12:09:48;;;;;;;5.47;1.32;;;;;;;17.59;44.54;100311.46;1725625;82;21153;-78
2022/05/19 12:13:04;;;;;;;4.08;1.32;;;;;;;17.63;45.12;100303.58;1743596;82;21161;-78
2022/05/19 12:16:21;;;;;;;1.80;1.20;;;;;;;17.66;43.40;100302.30;1746053;82;21133;-78
2022/05/19 12:19:56;;;;;;;4.92;1.10;;;;;;;17.69;44.21;100286.62;1718007;83;21205;-78
2022/05/19 12:22:56;;;;;;;2.60;1.42;;;;;;;17.73;44.71;100290.63;1741781;80;21798;-77
2022/05/19 12:26:09;;;;;;;15.13;1.50;;;;;;;17.86;43.09;100291.96;1755615;81;21629;-77
2022/05/19 12:29:43;;;;;;;3.87;1.62;;;;;;;18.11;43.42;100296.11;1714073;82;21160;-78
2022/05/19 12:32:49;;;;;;;2.85;1.65;;;;;;;18.35;42.83;100288.89;1715860;81;21181;-77
2022/05/19 12:36:01;;;;;;;5.80;2.92;;;;;;;18.40;42.39;100276.59;1710438;82;21133;-77
2022/05/19 12:39:20;;;;;;;5.08;2.50;;;;;;;18.30;43.53;100282.66;1745606;82;21205;-78
2022/05/19 12:42:34;;;;;;;4.10;2.40;;;;;;;18.07;42.56;100287.98;1725242;82;21284;-78
2022/05/19 12:45:39;;;;;;;5.80;1.98;;;;;;;17.95;44.07;100283.70;1742981;81;21168;-78
2022/05/19 12:48:53;;;;;;;2.92;1.72;;;;;;;17.92;43.18;100274.45;1729861;81;21849;-78
2022/05/19 12:52:05;;;;;;;4.12;1.35;;;;;;;17.91;43.37;100273.30;1748348;82;21156;-77
2022/05/19 12:55:34;;;;;;;7.47;1.10;;;;;;;17.85;43.50;100266.22;1735166;82;21433;-78
2022/05/19 12:58:56;;;;;;;4.80;1.40;;;;;;;17.85;42.69;100279.20;1729976;82;21773;-77
2022/05/19 13:02:10;;;;;;;3.72;1.40;;;;;;;17.87;42.13;100272.89;1748149;82;21164;-78
2022/05/19 13:05:31;;;;;;;3.80;1.67;;;;;;;17.88;40.82;100272.69;1730190;81;21201;-78
2022/05/19 13:08:49;;;;;;;12.50;2.70;;;;;;;17.90;40.93;100289.06;1755207;81;21244;-78
2022/05/19 13:12:01;;;;;;;13.83;4.28;;;;;;;17.92;40.77;100274.45;1755655;81;21176;-78
2022/05/19 13:15:07;;;;;;;4.55;1.42;;;;;;;17.97;41.12;100276.00;1755519;81;21173;-78
2022/05/19 13:18:16;;;;;;;3.52;1.20;;;;;;;18.03;39.38;100280.66;1754668;81;21768;-78
2022/05/19 13:21:43;;;;;;;4.00;1.90;;;;;;;18.09;41.19;100275.59;1755354;81;21589;-77
2022/05/19 13:24:52;;;;;;;2.77;1.30;;;;;;;18.13;39.57;100273.22;1711038;83;21770;-78
2022/05/19 13:31:38;;;;;;;3.22;0.90;;;;;;;18.15;38.19;100291.83;1683237;84;21591;-77
2022/05/19 13:34:58;;;;;;;3.60;1.42;;;;;;;18.21;39.55;100274.33;1726174;83;21797;-83
2022/05/19 13:38:04;;;;;;;7.10;1.85;;;;;;;18.24;39.80;100275.23;1723079;83;21207;-83
2022/05/19 13:41:10;;;;;;;8.38;1.35;;;;;;;18.23;39.84;100281.86;1727117;83;22145;-84
2022/05/19 13:44:19;;;;;;;6.78;3.87;;;;;;;18.24;41.29;100283.55;1701673;83;21203;-83
2022/05/19 13:47:30;;;;;;;3.85;1.57;;;;;;;18.28;40.62;100282.56;1699613;83;21203;-83
2022/05/19 13:50:39;;;;;;;3.83;0.90;;;;;;;18.35;40.13;100283.36;1735802;81;21156;-83
2022/05/19 13:53:44;;;;;;;1.70;1.10;;;;;;;18.42;38.86;100284.13;1733507;81;21771;-84
2022/05/19 13:56:52;;;;;;;2.33;1.02;;;;;;;18.38;39.75;100280.95;1726475;81;21190;-83
2022/05/19 14:00:02;;;;;;;2.20;1.10;;;;;;;18.33;39.37;100281.34;1731663;83;21180;-83
2022/05/19 14:03:08;;;;;;;1.77;1.17;;;;;;;18.26;39.06;100281.95;1731223;83;21188;-83
2022/05/19 14:06:14;;;;;;;6.80;1.12;;;;;;;18.22;38.96;100280.17;1747344;81;21208;-83
2022/05/19 14:09:52;;;;;;;3.47;1.00;;;;;;;18.22;39.07;100272.41;1760501;81;21499;-84
2022/05/19 14:13:04;;;;;;;5.58;1.42;;;;;;;18.25;39.16;100278.84;1758549;81;21223;-83
2022/05/19 14:16:18;;;;;;;3.17;1.15;;;;;;;18.24;38.68;100275.23;1760567;81;21648;-83
2022/05/19 14:19:42;;;;;;;6.35;1.10;;;;;;;18.21;38.58;100281.25;1760478;81;21793;-83
2022/05/19 14:22:41;;;;;;;7.00;1.15;;;;;;;18.24;39.17;100279.39;1760169;81;21821;-83
2022/05/19 14:25:46;;;;;;;2.75;1.20;;;;;;;18.35;38.58;100280.59;1760822;81;21723;-83
2022/05/19 14:28:53;;;;;;;7.87;0.90;;;;;;;18.41;38.91;100272.74;1739675;81;21244;-78
2022/05/19 14:32:09;;;;;;;2.30;0.90;;;;;;;18.47;39.30;100276.52;1759032;81;21820;-83
2022/05/19 14:35:25;;;;;;;5.33;1.10;;;;;;;18.53;38.82;100281.97;1755560;80;21259;-83
2022/05/19 14:38:45;;;;;;;1.55;0.82;;;;;;;18.53;37.91;100277.81;1731040;83;21223;-83
2022/05/19 14:45:18;;;;;;;2.33;0.80;;;;;;;18.39;37.64;100276.27;1732706;83;21177;-84
2022/05/19 14:48:43;;;;;;;3.67;1.00;;;;;;;18.29;37.50;100285.09;1732220;83;21227;-83
2022/05/19 14:51:56;;;;;;;5.75;1.05;;;;;;;18.16;36.94;100282.47;1731771;83;21781;-83
2022/05/19 14:55:02;;;;;;;1.72;0.70;;;;;;;18.01;37.62;100275.02;1732167;83;22078;-83
2022/05/19 14:58:14;;;;;;;9.03;0.90;;;;;;;17.93;39.06;100267.02;1732337;83;21535;-83
2022/05/19 15:01:21;;;;;;;1.57;0.80;;;;;;;17.89;38.58;100274.92;1732423;83;21156;-83
2022/05/19 15:04:26;;;;;;;5.85;1.12;;;;;;;17.88;38.08;100281.53;1732270;83;21793;-84
2022/05/19 15:07:53;;;;;;;0.95;0.70;;;;;;;17.87;37.96;100275.66;1729496;83;21239;-83
2022/05/19 15:10:58;;;;;;;3.27;0.78;;;;;;;17.91;38.42;100276.06;1717993;83;21169;-83
2022/05/19 15:14:05;;;;;;;2.05;0.93;;;;;;;17.96;38.87;100278.46;1719476;83;21212;-83
2022/05/19 15:17:11;;;;;;;2.75;0.93;;;;;;;18.03;38.00;100276.50;1719573;83;21259;-83
2022/05/19 15:20:20;;;;;;;5.17;0.88;;;;;;;18.08;38.19;100280.82;1719383;83;21715;-83